createdAt,value
2024-02-28T00:00:00.620Z,7.55
2024-02-28T00:02:33.654Z,7.53
2024-02-28T00:05:05.800Z,7.37
2024-02-28T00:07:37.729Z,7.38
2024-02-28T00:10:10.866Z,7.46
2024-02-28T00:12:43.491Z,7.50
2024-02-28T00:15:15.628Z,7.51
2024-02-28T00:17:47.834Z,7.48
2024-02-28T00:20:19.868Z,7.50
2024-02-28T00:22:51.774Z,7.53
2024-02-28T00:25:23.645Z,7.43
2024-02-28T00:27:55.779Z,7.39
2024-02-28T00:30:29.664Z,7.40
2024-02-28T00:33:01.965Z,7.45
2024-02-28T00:35:35.574Z,7.35
2024-02-28T00:38:07.549Z,7.35
2024-02-28T00:40:39.461Z,7.40
2024-02-28T00:43:11.553Z,7.37
2024-02-28T00:45:44.106Z,7.36
2024-02-28T00:48:16.604Z,7.27
2024-02-28T00:50:48.534Z,7.15
2024-02-28T00:53:21.021Z,7.04
2024-02-28T00:55:53.248Z,6.93
2024-02-28T00:58:25.125Z,6.84
2024-02-28T01:00:57.299Z,6.78
2024-02-28T01:03:29.201Z,6.73
2024-02-28T01:06:05.049Z,6.73
2024-02-28T01:08:35.458Z,6.75
2024-02-28T01:11:07.478Z,6.79
2024-02-28T01:13:39.353Z,6.87
2024-02-28T01:16:11.757Z,6.97
2024-02-28T01:18:43.655Z,7.00
2024-02-28T01:21:15.557Z,6.93
2024-02-28T01:23:47.441Z,6.86
2024-02-28T01:26:21.465Z,6.82
2024-02-28T01:28:53.410Z,6.78
2024-02-28T01:31:25.442Z,6.80
2024-02-28T01:33:58.895Z,6.87
2024-02-28T01:36:30.859Z,6.98
2024-02-28T01:39:02.698Z,7.06
2024-02-28T01:41:34.578Z,7.12
2024-02-28T01:44:06.846Z,7.19
2024-02-28T01:46:38.661Z,7.28
2024-02-28T01:49:10.559Z,7.34
2024-02-28T01:51:44.035Z,7.35
2024-02-28T01:54:16.545Z,7.37
2024-02-28T01:56:48.596Z,7.41
2024-02-28T01:59:21.558Z,7.39
2024-02-28T02:01:54.202Z,7.32
2024-02-28T02:04:26.169Z,7.28
2024-02-28T02:06:59.509Z,7.22
2024-02-28T02:09:31.737Z,7.24
2024-02-28T02:12:04.246Z,7.28
2024-02-28T02:14:36.247Z,7.31
2024-02-28T02:17:08.380Z,7.31
2024-02-28T02:19:40.402Z,7.33
2024-02-28T02:22:15.406Z,7.35
2024-02-28T02:24:47.354Z,7.34
2024-02-28T02:27:19.252Z,7.24
2024-02-28T02:29:51.066Z,7.17
2024-02-28T02:32:22.997Z,7.17
2024-02-28T02:34:54.817Z,7.18
2024-02-28T02:37:26.816Z,7.12
2024-02-28T02:39:59.278Z,7.08
2024-02-28T02:42:31.151Z,7.15
2024-02-28T02:45:03.102Z,7.18
2024-02-28T02:47:35.101Z,7.07
2024-02-28T02:50:07.909Z,7.01
2024-02-28T02:52:39.762Z,7.06
2024-02-28T02:55:12.216Z,7.11
2024-02-28T02:57:44.789Z,7.06
2024-02-28T03:00:17.361Z,7.07
2024-02-28T03:02:49.250Z,7.11
2024-02-28T03:05:21.086Z,7.13
2024-02-28T03:07:52.959Z,7.15
2024-02-28T03:10:24.817Z,7.13
2024-02-28T03:12:56.984Z,7.09
2024-02-28T03:15:29.290Z,7.01
2024-02-28T03:18:01.262Z,6.99
2024-02-28T03:20:33.079Z,7.03
2024-02-28T03:23:06.858Z,7.02
2024-02-28T03:25:38.636Z,7.10
2024-02-28T03:28:10.842Z,7.20
2024-02-28T03:30:43.080Z,7.25
2024-02-28T03:33:15.096Z,7.25
2024-02-28T03:35:46.933Z,7.25
2024-02-28T03:38:18.889Z,7.16
2024-02-28T03:40:50.683Z,7.16
2024-02-28T03:43:22.546Z,7.19
2024-02-28T03:45:54.382Z,7.22
2024-02-28T03:48:26.588Z,7.28
2024-02-28T03:50:58.554Z,7.33
2024-02-28T03:53:30.859Z,7.37
2024-02-28T03:56:02.783Z,7.40
2024-02-28T03:58:34.693Z,7.42
2024-02-28T04:01:07.056Z,7.33
2024-02-28T04:03:39.022Z,7.19
2024-02-28T04:06:10.940Z,7.11
2024-02-28T04:08:44.681Z,7.06
2024-02-28T04:11:16.651Z,7.02
2024-02-28T04:13:48.732Z,7.01
2024-02-28T04:16:21.030Z,7.01
2024-02-28T04:18:53.021Z,6.98
2024-02-28T04:21:25.116Z,6.97
2024-02-28T04:23:57.007Z,6.94
2024-02-28T04:26:28.942Z,6.91
2024-02-28T04:29:02.787Z,6.98
2024-02-28T04:31:34.939Z,7.02
2024-02-28T04:34:06.791Z,6.96
2024-02-28T04:36:38.802Z,6.93
2024-02-28T04:39:11.022Z,6.94
2024-02-28T04:41:43.062Z,6.99
2024-02-28T04:44:15.081Z,7.06
2024-02-28T04:46:46.855Z,7.11
2024-02-28T04:49:18.714Z,7.13
2024-02-28T04:51:51.453Z,7.16
2024-02-28T04:54:23.419Z,7.17
2024-02-28T04:56:55.241Z,7.17
2024-02-28T04:59:27.061Z,7.22
2024-02-28T05:01:58.970Z,7.25
2024-02-28T05:04:31.012Z,7.19
2024-02-28T05:07:04.021Z,7.13
2024-02-28T05:09:36.572Z,7.13
2024-02-28T05:12:10.137Z,7.21
2024-02-28T05:14:42.042Z,7.27
2024-02-28T05:17:13.813Z,7.31
2024-02-28T05:19:45.695Z,7.34
2024-02-28T05:22:17.509Z,7.38
2024-02-28T05:24:51.685Z,7.42
2024-02-28T05:27:23.777Z,7.44
2024-02-28T05:29:55.905Z,7.45
2024-02-28T05:32:27.880Z,7.44
2024-02-28T05:35:01.004Z,7.47
2024-02-28T05:37:32.964Z,7.47
2024-02-28T05:40:05.108Z,7.46
2024-02-28T05:42:37.088Z,7.43
2024-02-28T05:45:10.695Z,7.34
2024-02-28T05:47:42.635Z,7.22
2024-02-28T05:50:15.680Z,7.11
2024-02-28T05:52:47.529Z,7.03
2024-02-28T05:55:19.617Z,6.98
2024-02-28T05:57:51.619Z,6.92
2024-02-28T06:00:24.139Z,6.90
2024-02-28T06:02:56.186Z,6.95
2024-02-28T06:05:28.640Z,6.98
2024-02-28T06:08:00.475Z,6.94
2024-02-28T06:10:32.539Z,6.94
2024-02-28T06:13:05.864Z,6.94
2024-02-28T06:15:37.900Z,6.96
2024-02-28T06:18:10.639Z,6.93
2024-02-28T06:20:43.116Z,6.90
2024-02-28T06:23:23.338Z,6.93
2024-02-28T06:26:00.004Z,7.02
2024-02-28T06:28:33.417Z,7.10
2024-02-28T06:31:05.456Z,7.10
2024-02-28T06:33:37.405Z,7.11
2024-02-28T06:36:09.924Z,7.11
2024-02-28T06:38:41.830Z,7.12
2024-02-28T06:41:14.128Z,7.15
2024-02-28T06:43:47.304Z,7.18
2024-02-28T06:46:19.852Z,7.23
2024-02-28T06:48:51.676Z,7.30
2024-02-28T06:51:23.561Z,7.30
2024-02-28T06:53:55.549Z,7.25
2024-02-28T06:56:27.632Z,7.24
2024-02-28T06:58:59.566Z,7.26
2024-02-28T07:01:31.830Z,7.25
2024-02-28T07:04:04.285Z,7.25
2024-02-28T07:06:36.309Z,7.26
2024-02-28T07:09:09.643Z,7.31
2024-02-28T07:11:42.458Z,7.26
2024-02-28T07:14:16.860Z,7.25
2024-02-28T07:16:48.866Z,7.22
2024-02-28T07:19:20.913Z,7.23
2024-02-28T07:21:52.912Z,7.23
2024-02-28T07:24:25.160Z,7.21
2024-02-28T07:26:57.104Z,7.22
2024-02-28T07:29:28.894Z,7.20
2024-02-28T07:32:02.599Z,7.14
2024-02-28T07:34:35.048Z,7.02
2024-02-28T07:37:07.280Z,6.93
2024-02-28T07:39:39.120Z,6.88
2024-02-28T07:42:11.137Z,6.81
2024-02-28T07:44:43.351Z,6.74
2024-02-28T07:47:15.830Z,6.65
2024-02-28T07:49:48.334Z,6.57
2024-02-28T07:52:20.378Z,6.50
2024-02-28T07:54:52.804Z,6.49
2024-02-28T07:57:24.858Z,6.49
2024-02-28T07:59:57.040Z,6.47
2024-02-28T08:02:29.200Z,6.43
2024-02-28T08:05:01.231Z,6.39
2024-02-28T08:07:33.815Z,6.39
2024-02-28T08:10:07.290Z,6.40
2024-02-28T08:12:39.254Z,6.38
2024-02-28T08:15:12.460Z,6.33
2024-02-28T08:17:44.410Z,6.31
2024-02-28T08:20:16.909Z,6.34
2024-02-28T08:22:48.962Z,6.34
2024-02-28T08:25:20.873Z,6.35
2024-02-28T08:27:52.914Z,6.40
2024-02-28T08:30:24.829Z,6.46
2024-02-28T08:32:56.832Z,6.46
2024-02-28T08:35:29.553Z,6.41
2024-02-28T08:38:01.532Z,6.39
2024-02-28T08:40:33.361Z,6.36
2024-02-28T08:43:05.486Z,6.35
2024-02-28T08:45:38.740Z,6.36
2024-02-28T08:48:11.560Z,6.39
2024-02-28T08:50:43.494Z,6.41
2024-02-28T08:53:15.335Z,6.39
2024-02-28T08:55:47.966Z,6.36
2024-02-28T08:58:20.476Z,6.35
2024-02-28T09:00:52.399Z,6.32
2024-02-28T09:03:24.335Z,6.29
2024-02-28T09:05:56.118Z,6.26
2024-02-28T09:08:28.042Z,6.25
2024-02-28T09:10:59.915Z,6.28
2024-02-28T09:13:31.883Z,6.35
2024-02-28T09:16:04.041Z,6.37
2024-02-28T09:18:36.166Z,6.32
2024-02-28T09:21:10.001Z,6.33
2024-02-28T09:23:41.971Z,6.37
2024-02-28T09:26:13.856Z,6.40
2024-02-28T09:28:46.203Z,6.37
2024-02-28T09:31:18.305Z,6.36
2024-02-28T09:33:50.431Z,6.35
2024-02-28T09:36:22.379Z,6.33
2024-02-28T09:38:54.181Z,6.32
2024-02-28T09:41:28.702Z,6.32
2024-02-28T09:44:02.336Z,6.30
2024-02-28T09:46:36.570Z,6.25
2024-02-28T09:49:09.764Z,6.18
2024-02-28T09:51:41.937Z,6.14
2024-02-28T09:54:14.770Z,6.09
2024-02-28T09:56:46.845Z,6.09
2024-02-28T09:59:21.906Z,6.12
2024-02-28T10:01:58.544Z,6.16
2024-02-28T10:04:31.670Z,6.20
2024-02-28T10:07:15.421Z,6.19
2024-02-28T10:09:47.753Z,6.15
2024-02-28T10:12:20.308Z,6.10
2024-02-28T10:14:54.251Z,6.05
2024-02-28T10:17:27.611Z,6.04
2024-02-28T10:20:05.539Z,6.02
2024-02-28T10:22:41.311Z,6.00
2024-02-28T10:25:13.522Z,5.96
2024-02-28T10:27:45.438Z,5.95
2024-02-28T10:30:18.520Z,5.90
2024-02-28T10:32:53.828Z,5.85
2024-02-28T10:35:26.809Z,5.85
2024-02-28T10:37:58.790Z,5.84
2024-02-28T10:40:31.861Z,5.84
2024-02-28T10:43:05.099Z,5.86
2024-02-28T10:45:49.343Z,5.91
2024-02-28T10:48:30.445Z,5.91
2024-02-28T10:51:05.044Z,5.96
2024-02-28T10:53:43.829Z,5.96
2024-02-28T10:56:21.113Z,5.91
2024-02-28T10:58:59.232Z,5.89
2024-02-28T11:01:31.605Z,5.86
2024-02-28T11:04:04.892Z,5.81
2024-02-28T11:06:36.874Z,5.77
2024-02-28T11:09:13.177Z,5.71
2024-02-28T11:11:45.265Z,5.69
2024-02-28T11:14:22.785Z,5.74
2024-02-28T11:17:05.122Z,5.79
2024-02-28T11:19:37.398Z,5.82
2024-02-28T11:22:10.218Z,5.79
2024-02-28T11:24:46.347Z,5.74
2024-02-28T11:27:18.951Z,5.72
2024-02-28T11:29:51.629Z,5.78
2024-02-28T11:32:23.710Z,5.82
2024-02-28T11:34:55.601Z,5.81
2024-02-28T11:37:28.488Z,5.81
2024-02-28T11:40:00.781Z,5.73
2024-02-28T11:42:33.019Z,5.69
2024-02-28T11:45:06.725Z,5.68
2024-02-28T11:47:38.726Z,5.65
2024-02-28T11:50:11.629Z,5.59
2024-02-28T11:52:43.972Z,5.54
2024-02-28T11:55:15.871Z,5.55
2024-02-28T11:57:47.806Z,5.56
2024-02-28T12:00:20.326Z,5.56
2024-02-28T12:02:53.390Z,5.56
2024-02-28T12:05:26.009Z,5.56
2024-02-28T12:07:59.528Z,5.57
2024-02-28T12:10:31.601Z,5.60
2024-02-28T12:13:05.205Z,5.63
2024-02-28T12:15:37.333Z,5.60
2024-02-28T12:18:13.382Z,5.59
2024-02-28T12:20:46.684Z,5.56
2024-02-28T12:23:19.339Z,5.54
2024-02-28T12:25:51.421Z,5.53
2024-02-28T12:28:23.248Z,5.51
2024-02-28T12:30:55.528Z,5.52
2024-02-28T12:33:27.486Z,5.53
2024-02-28T12:35:59.425Z,5.55
2024-02-28T12:38:31.678Z,5.58
2024-02-28T12:41:05.128Z,5.59
2024-02-28T12:43:37.024Z,5.56
2024-02-28T12:46:09.234Z,5.56
2024-02-28T12:48:42.913Z,5.53
2024-02-28T12:51:37.288Z,5.49
2024-02-28T12:54:10.359Z,5.47
2024-02-28T12:56:44.079Z,5.47
2024-02-28T12:59:16.913Z,5.50
2024-02-28T13:01:49.872Z,5.49
2024-02-28T13:04:21.823Z,5.51
2024-02-28T13:06:54.767Z,5.54
2024-02-28T13:09:26.719Z,5.54
2024-02-28T13:11:58.869Z,5.52
2024-02-28T13:14:30.797Z,5.54
2024-02-28T13:17:04.735Z,5.55
2024-02-28T13:19:37.068Z,5.58
2024-02-28T13:22:09.081Z,5.60
2024-02-28T13:24:41.088Z,5.59
2024-02-28T13:27:13.167Z,5.61
2024-02-28T13:29:45.074Z,5.63
2024-02-28T13:32:16.898Z,5.65
2024-02-28T13:34:50.033Z,5.61
2024-02-28T13:37:22.174Z,5.55
2024-02-28T13:39:54.198Z,5.55
2024-02-28T13:42:26.703Z,5.53
2024-02-28T13:44:58.548Z,5.48
2024-02-28T13:47:30.741Z,5.43
2024-02-28T13:50:02.672Z,5.39
2024-02-28T13:52:34.657Z,5.37
2024-02-28T13:55:07.642Z,5.33
2024-02-28T13:57:39.779Z,5.32
2024-02-28T14:00:14.952Z,5.31
2024-02-28T14:02:47.020Z,5.27
2024-02-28T14:05:18.964Z,5.20
2024-02-28T14:07:50.858Z,5.15
2024-02-28T14:10:23.949Z,5.12
2024-02-28T14:12:56.346Z,5.12
2024-02-28T14:15:29.487Z,5.10
2024-02-28T14:18:01.828Z,5.11
2024-02-28T14:20:33.738Z,5.10
2024-02-28T14:23:06.116Z,5.12
2024-02-28T14:25:38.144Z,5.16
2024-02-28T14:28:10.695Z,5.21
2024-02-28T14:30:44.040Z,5.22
2024-02-28T14:33:16.106Z,5.20
2024-02-28T14:35:48.087Z,5.20
2024-02-28T14:38:21.059Z,5.16
2024-02-28T14:40:56.896Z,5.16
2024-02-28T14:43:31.522Z,5.15
2024-02-28T14:46:05.738Z,5.15
2024-02-28T14:48:39.372Z,5.18
2024-02-28T14:51:12.645Z,5.13
2024-02-28T14:53:45.839Z,5.09
2024-02-28T14:56:20.708Z,5.03
2024-02-28T14:58:53.038Z,4.98
2024-02-28T15:01:25.814Z,4.97
2024-02-28T15:03:57.827Z,4.96
2024-02-28T15:06:29.620Z,4.91
2024-02-28T15:09:01.496Z,4.91
2024-02-28T15:11:34.398Z,4.89
2024-02-28T15:14:06.532Z,4.86
2024-02-28T15:16:38.515Z,4.88
2024-02-28T15:19:10.498Z,4.91
2024-02-28T15:21:42.753Z,4.92
2024-02-28T15:24:15.530Z,4.93
2024-02-28T15:26:47.644Z,4.96
2024-02-28T15:29:19.577Z,4.97
2024-02-28T15:31:51.455Z,4.95
2024-02-28T15:34:23.996Z,4.94
2024-02-28T15:36:57.355Z,4.96
2024-02-28T15:39:30.427Z,4.92
2024-02-28T15:42:03.691Z,4.91
2024-02-28T15:44:39.140Z,4.95
2024-02-28T15:47:13.747Z,4.97
2024-02-28T15:49:47.115Z,4.97
2024-02-28T15:52:21.049Z,4.97
2024-02-28T15:54:53.441Z,4.92
2024-02-28T15:57:25.268Z,4.89
2024-02-28T15:59:57.653Z,4.86
2024-02-28T16:02:29.662Z,4.84
2024-02-28T16:05:02.567Z,4.82
2024-02-28T16:07:34.571Z,4.81
2024-02-28T16:10:07.421Z,4.79
2024-02-28T16:12:40.029Z,4.79
2024-02-28T16:15:13.072Z,4.79
2024-02-28T16:17:45.332Z,4.79
2024-02-28T16:20:17.430Z,4.77
2024-02-28T16:22:49.428Z,4.74
2024-02-28T16:25:22.565Z,4.69
2024-02-28T16:27:54.582Z,4.65
2024-02-28T16:30:26.547Z,4.62
2024-02-28T16:32:58.491Z,4.60
2024-02-28T16:35:31.180Z,4.60
2024-02-28T16:38:03.091Z,4.62
2024-02-28T16:40:35.089Z,4.64
2024-02-28T16:43:07.806Z,4.61
2024-02-28T16:45:40.931Z,4.59
2024-02-28T16:48:13.086Z,4.57
2024-02-28T16:50:45.155Z,4.54
2024-02-28T16:53:17.185Z,4.53
2024-02-28T16:55:49.272Z,4.50
2024-02-28T16:58:21.420Z,4.46
2024-02-28T17:00:53.488Z,4.46
2024-02-28T17:03:25.944Z,4.46
2024-02-28T17:05:58.107Z,4.44
2024-02-28T17:08:30.092Z,4.40
2024-02-28T17:11:02.148Z,4.39
2024-02-28T17:13:34.176Z,4.38
2024-02-28T17:16:06.307Z,4.33
2024-02-28T17:18:38.380Z,4.33
2024-02-28T17:21:10.358Z,4.32
2024-02-28T17:23:42.328Z,4.30
2024-02-28T17:26:14.216Z,4.29
2024-02-28T17:28:46.379Z,4.28
2024-02-28T17:31:18.263Z,4.30
2024-02-28T17:33:50.318Z,4.31
2024-02-28T17:36:22.259Z,4.32
2024-02-28T17:38:54.141Z,4.33
2024-02-28T17:41:26.086Z,4.31
2024-02-28T17:43:57.925Z,4.26
2024-02-28T17:46:29.815Z,4.24
2024-02-28T17:49:01.698Z,4.24
2024-02-28T17:51:36.768Z,4.24
2024-02-28T17:54:09.674Z,4.21
2024-02-28T17:56:41.679Z,4.19
2024-02-28T17:59:13.552Z,4.15
2024-02-28T18:01:45.576Z,4.14
2024-02-28T18:04:17.531Z,4.13
2024-02-28T18:06:49.430Z,4.14
2024-02-28T18:09:22.270Z,4.12
2024-02-28T18:11:54.221Z,4.13
2024-02-28T18:14:26.080Z,4.13
2024-02-28T18:16:58.022Z,4.13
2024-02-28T18:19:30.021Z,4.14
2024-02-28T18:22:02.932Z,4.13
2024-02-28T18:24:34.917Z,4.10
2024-02-28T18:27:10.342Z,4.09
2024-02-28T18:29:42.746Z,4.10
2024-02-28T18:32:14.821Z,4.10
2024-02-28T18:34:51.400Z,4.11
2024-02-28T18:37:25.667Z,4.09
2024-02-28T18:39:57.721Z,4.03
2024-02-28T18:42:29.693Z,4.01
2024-02-28T18:45:01.647Z,3.99
2024-02-28T18:47:33.535Z,3.97
2024-02-28T18:50:06.758Z,3.97
2024-02-28T18:52:38.533Z,3.95
2024-02-28T18:55:11.618Z,3.94
2024-02-28T18:57:43.649Z,3.94
2024-02-28T19:00:17.768Z,3.98
2024-02-28T19:02:50.390Z,4.00
2024-02-28T19:05:22.308Z,3.96
2024-02-28T19:07:54.155Z,3.94
2024-02-28T19:10:26.141Z,3.88
2024-02-28T19:12:58.059Z,3.82
2024-02-28T19:15:29.942Z,3.80
2024-02-28T19:18:01.939Z,3.78
2024-02-28T19:20:35.000Z,3.78
2024-02-28T19:23:07.112Z,3.79
2024-02-28T19:25:39.006Z,3.79
2024-02-28T19:28:11.190Z,3.79
2024-02-28T19:30:44.505Z,3.78
2024-02-28T19:33:16.675Z,3.75
2024-02-28T19:35:48.617Z,3.74
2024-02-28T19:38:20.920Z,3.76
2024-02-28T19:40:53.066Z,3.79
2024-02-28T19:43:24.870Z,3.75
2024-02-28T19:45:56.985Z,3.75
2024-02-28T19:48:30.355Z,3.77
2024-02-28T19:51:02.576Z,3.76
2024-02-28T19:53:34.413Z,3.75
2024-02-28T19:56:06.605Z,3.74
2024-02-28T19:58:38.763Z,3.73
2024-02-28T20:01:11.730Z,3.73
2024-02-28T20:03:43.738Z,3.76
2024-02-28T20:06:15.894Z,3.74
2024-02-28T20:08:49.640Z,3.70
2024-02-28T20:11:22.273Z,3.68
2024-02-28T20:13:54.117Z,3.68
2024-02-28T20:16:25.937Z,3.66
2024-02-28T20:18:57.893Z,3.65
2024-02-28T20:21:31.404Z,3.66
2024-02-28T20:24:03.456Z,3.65
2024-02-28T20:26:35.393Z,3.65
2024-02-28T20:29:08.896Z,3.64
2024-02-28T20:31:40.830Z,3.63
2024-02-28T20:34:12.743Z,3.65
2024-02-28T20:36:47.930Z,3.66
2024-02-28T20:39:19.998Z,3.66
2024-02-28T20:41:51.887Z,3.64
2024-02-28T20:44:25.155Z,3.63
2024-02-28T20:46:58.033Z,3.63
2024-02-28T20:49:29.921Z,3.62
2024-02-28T20:52:02.462Z,3.60
2024-02-28T20:54:34.697Z,3.60
2024-02-28T20:57:12.717Z,3.63
2024-02-28T20:59:48.859Z,3.66
2024-02-28T21:02:20.999Z,3.69
2024-02-28T21:04:53.307Z,3.73
2024-02-28T21:07:36.911Z,3.75
2024-02-28T21:10:17.362Z,3.75
2024-02-28T21:12:49.385Z,3.74
2024-02-28T21:15:21.560Z,3.70
2024-02-28T21:17:53.549Z,3.69
2024-02-28T21:20:26.106Z,3.64
2024-02-28T21:22:58.089Z,3.59
2024-02-28T21:25:30.026Z,3.55
2024-02-28T21:28:02.105Z,3.56
2024-02-28T21:30:34.278Z,3.57
2024-02-28T21:33:06.855Z,3.57
2024-02-28T21:35:43.635Z,3.57
2024-02-28T21:38:15.801Z,3.56
2024-02-28T21:40:47.768Z,3.54
2024-02-28T21:43:19.823Z,3.52
2024-02-28T21:45:51.922Z,3.49
2024-02-28T21:48:23.886Z,3.46
2024-02-28T21:50:55.773Z,3.47
2024-02-28T21:53:27.658Z,3.48
2024-02-28T21:55:59.434Z,3.52
2024-02-28T21:58:31.439Z,3.56
2024-02-28T22:01:03.683Z,3.56
2024-02-28T22:03:35.851Z,3.52
2024-02-28T22:06:10.865Z,3.49
2024-02-28T22:08:43.025Z,3.44
2024-02-28T22:11:15.121Z,3.44
2024-02-28T22:13:47.124Z,3.45
2024-02-28T22:16:18.946Z,3.48
2024-02-28T22:18:51.807Z,3.49
2024-02-28T22:21:23.833Z,3.47
2024-02-28T22:23:55.721Z,3.42
2024-02-28T22:26:27.750Z,3.38
2024-02-28T22:28:59.747Z,3.39
2024-02-28T22:31:31.780Z,3.36
2024-02-28T22:34:03.851Z,3.32
2024-02-28T22:36:35.624Z,3.31
2024-02-28T22:39:10.361Z,3.32
2024-02-28T22:41:42.213Z,3.36
2024-02-28T22:44:14.244Z,3.38
2024-02-28T22:46:46.777Z,3.41
2024-02-28T22:49:18.801Z,3.43
2024-02-28T22:51:50.876Z,3.38
2024-02-28T22:54:24.293Z,3.36
2024-02-28T22:56:56.388Z,3.34
2024-02-28T22:59:28.414Z,3.35
2024-02-28T23:02:00.371Z,3.33
2024-02-28T23:04:32.393Z,3.32
2024-02-28T23:07:04.266Z,3.37
2024-02-28T23:09:36.610Z,3.42
2024-02-28T23:12:09.183Z,3.44
2024-02-28T23:14:41.194Z,3.46
2024-02-28T23:17:13.049Z,3.45
2024-02-28T23:19:47.462Z,3.45
2024-02-28T23:22:20.554Z,3.43
2024-02-28T23:24:52.840Z,3.41
2024-02-28T23:27:26.436Z,3.36
2024-02-28T23:29:58.333Z,3.33
2024-02-28T23:32:30.303Z,3.34
2024-02-28T23:35:02.159Z,3.34
2024-02-28T23:37:34.095Z,3.36
2024-02-28T23:40:07.841Z,3.33
2024-02-28T23:42:40.218Z,3.32
2024-02-28T23:45:13.794Z,3.35
2024-02-28T23:47:46.037Z,3.39
2024-02-28T23:50:18.158Z,3.41
2024-02-28T23:52:50.102Z,3.40
2024-02-28T23:55:22.381Z,3.39
2024-02-28T23:57:54.286Z,3.41
